Data for 03/02/2017

Time Sea-Level Adjusted Pressure Absolute Pressure Temperature Relative Humidity Dew Point   
(mb) (inHg) (mb) (inHg) (C) (F) (%) (C) (F)
00:05 1025 30.27 854 25.22 -0.4 31.3 44 -11.3 11.7
00:10 1025 30.27 854 25.22 -0.2 31.7 44 -11.1 12
00:15 1025 30.27 854 25.22 0 32 43 -11.3 11.7
00:20 1025 30.27 854 25.22 0.1 32.1 42 -11.4 11.5
00:25 1025 30.27 854 25.22 0.1 32.2 42 -11.3 11.7
00:30 1025 30.27 854 25.22 0.1 32.2 43 -11 12.1
00:35 1025 30.27 854 25.22 0 32.1 41 -11.6 11.2
00:40 1025 30.27 854 25.22 0.1 32.2 42 -11.3 11.7
00:45 1025 30.27 854 25.22 0 32.1 42 -11.4 11.5
00:50 1025 30.27 854 25.22 -0 32 43 -11.2 11.9
00:55 1025 30.27 854 25.22 -0.1 31.9 41 -11.7 11
01:00 1025 30.27 854 25.22 -0 31.9 42 -11.4 11.4
01:05 1025 30.27 854 25.22 -0.2 31.7 43 -11.4 11.4
01:10 1025 30.27 854 25.22 -0.1 31.9 40 -12.1 10.2
01:15 1025 30.27 854 25.22 0.1 32.2 39 -12.4 9.8
01:20 1025 30.27 854 25.22 0.2 32.4 39 -12.1 10.2
01:25 1025 30.27 854 25.22 0.3 32.5 40 -11.9 10.5
01:30 1025 30.27 854 25.22 0.1 32.2 40 -11.9 10.6
01:35 1025 30.27 854 25.22 0.1 32.3 39 -12.3 9.9
01:40 1025 30.27 854 25.22 0.1 32.2 40 -11.8 10.7
01:45 1025 30.27 854 25.22 0 32 40 -12.1 10.3
01:50 1025 30.27 854 25.22 0.1 32.1 40 -12 10.4
01:55 1025 30.27 854 25.22 0.2 32.3 40 -11.9 10.5
02:00 1025 30.27 855 25.25 0.2 32.3 42 -11.4 11.4
02:05 1025 30.27 855 25.25 0.1 32.1 42 -11.3 11.7
02:10 1025 30.27 855 25.25 -0.2 31.7 45 -10.8 12.5
02:15 1025 30.27 855 25.25 -0.3 31.4 43 -11.4 11.6
02:20 1025 30.27 855 25.25 -0.3 31.5 43 -11.4 11.5
02:25 1025 30.27 855 25.25 -0.3 31.5 44 -11.2 11.8
02:30 1025 30.27 855 25.25 -0.3 31.5 44 -11.2 11.9
02:35 1025 30.27 855 25.25 -0.2 31.6 45 -10.8 12.6
02:40 1026 30.3 855 25.25 -0.2 31.6 45 -10.8 12.5
02:45 1026 30.3 855 25.25 -0.2 31.7 44 -11 12.2
02:50 1026 30.3 855 25.25 -0.1 31.8 45 -10.8 12.6
02:55 1026 30.3 855 25.25 -0.1 31.7 46 -10.6 13
03:00 1026 30.3 855 25.25 -0.2 31.7 45 -10.7 12.8
03:05 1026 30.3 855 25.25 -0.2 31.6 47 -10.3 13.4
03:10 1026 30.3 855 25.25 -0.3 31.5 46 -10.5 13.1
03:15 1026 30.3 855 25.25 -0.2 31.7 46 -10.5 13.2
03:20 1026 30.3 855 25.25 -0.1 31.8 45 -10.7 12.8
03:25 1026 30.3 855 25.25 0 32 45 -10.7 12.7
03:30 1026 30.3 855 25.25 -0 32 45 -10.7 12.8
03:35 1026 30.3 855 25.25 -0 31.9 45 -10.7 12.7
03:40 1026 30.3 855 25.25 0 32 44 -10.9 12.4
03:45 1026 30.3 855 25.25 0.1 32.1 44 -10.7 12.7
03:50 1026 30.3 855 25.25 0 32 45 -10.7 12.8
03:55 1026 30.3 855 25.25 -0 32 45 -10.6 12.9
04:00 1026 30.3 855 25.25 -0.1 31.9 45 -10.6 12.8
04:05 1026 30.3 855 25.25 -0.1 31.8 46 -10.3 13.4
04:10 1026 30.3 855 25.25 -0.2 31.7 46 -10.4 13.2
04:15 1026 30.3 855 25.25 -0.1 31.9 45 -10.6 12.9
04:20 1026 30.3 855 25.25 -0 31.9 45 -10.6 13
04:25 1026 30.3 855 25.25 0 32 45 -10.5 13.2
04:30 1026 30.3 855 25.25 -0.1 31.9 46 -10.4 13.3
04:35 1026 30.3 855 25.25 -0.1 31.8 46 -10.5 13.1
04:40 1026 30.3 855 25.25 -0.1 31.8 46 -10.3 13.4
04:45 1026 30.3 855 25.25 -0.1 31.8 46 -10.4 13.3
04:50 1026 30.3 855 25.25 -0.1 31.9 46 -10.4 13.2
04:55 1026 30.3 855 25.25 -0.1 31.9 45 -10.6 13
05:00 1026 30.3 855 25.25 -0.1 31.9 45 -10.6 13
05:05 1026 30.3 855 25.25 -0.1 31.9 46 -10.5 13.1
05:10 1026 30.3 855 25.25 -0.1 31.8 46 -10.5 13.1
05:15 1026 30.3 855 25.25 -0.1 31.8 46 -10.5 13.2
05:20 1026 30.3 855 25.25 -0.1 31.8 46 -10.5 13.1
05:25 1026 30.3 855 25.25 -0.1 31.7 46 -10.3 13.4
05:30 1026 30.3 855 25.25 -0.2 31.7 45 -10.6 12.9
05:35 1026 30.3 855 25.25 -0.1 31.8 45 -10.6 13
05:40 1026 30.3 855 25.25 -0.1 31.8 45 -10.8 12.6
05:45 1026 30.3 855 25.25 -0.1 31.8 45 -10.7 12.8
05:50 1026 30.3 855 25.25 -0.2 31.7 46 -10.6 13
05:55 1026 30.3 855 25.25 -0.2 31.6 45 -10.7 12.8
06:00 1026 30.3 855 25.25 -0.3 31.5 46 -10.5 13.1
06:05 1026 30.3 855 25.25 -0.4 31.4 46 -10.6 12.8
06:10 1026 30.3 855 25.25 -0.3 31.4 46 -10.7 12.8
06:15 1026 30.3 855 25.25 -0.3 31.5 45 -10.8 12.5
06:20 1026 30.3 855 25.25 -0.3 31.4 45 -10.7 12.7
06:25 1026 30.3 855 25.25 -0.3 31.4 46 -10.7 12.8
06:30 1026 30.3 855 25.25 -0.3 31.4 46 -10.6 13
06:35 1026 30.3 855 25.25 -0.5 31.1 46 -10.6 12.8
06:40 1026 30.3 855 25.25 -0.5 31 46 -10.9 12.4
06:45 1026 30.3 855 25.25 -0.5 31.2 45 -11 12.2
06:50 1026 30.3 855 25.25 -0.4 31.3 45 -11 12.2
06:55 1026 30.3 855 25.25 -0.5 31.2 46 -10.7 12.8
07:00 1026 30.3 855 25.25 -0.5 31 46 -10.8 12.5
07:05 1026 30.3 855 25.25 -0.5 31.1 45 -10.9 12.3
07:10 1026 30.3 855 25.25 -0.4 31.2 46 -10.8 12.6
07:15 1026 30.3 855 25.25 -0.5 31.1 47 -10.5 13.1
07:20 1026 30.3 855 25.25 -0.6 31 47 -10.5 13
07:25 1026 30.3 855 25.25 -0.6 31 47 -10.4 13.2
07:30 1026 30.3 855 25.25 -0.6 30.9 46 -10.8 12.6
07:35 1026 30.3 855 25.25 -0.5 31.2 45 -11 12.2
07:40 1026 30.3 855 25.25 -0.4 31.3 45 -10.9 12.4
07:45 1026 30.3 855 25.25 -0.3 31.4 45 -10.8 12.6
07:50 1026 30.3 855 25.25 -0.4 31.4 44 -11.2 11.8
07:55 1026 30.3 855 25.25 -0.3 31.5 44 -11.2 11.9
08:00 1026 30.3 855 25.25 -0.2 31.6 43 -11.2 11.8
08:05 1026 30.3 855 25.25 -0.1 31.7 42 -11.5 11.3
08:10 1026 30.3 855 25.25 -0.1 31.8 42 -11.6 11.2
08:15 1026 30.3 855 25.25 -0 32 42 -11.5 11.2
08:20 1026 30.3 855 25.25 0.1 32.1 41 -11.6 11.2
08:25 1026 30.3 855 25.25 0.1 32.2 42 -11.4 11.4
08:30 1026 30.3 855 25.25 0.1 32.2 42 -11.4 11.6
08:35 1026 30.3 855 25.25 0.2 32.3 42 -11.2 11.8
08:40 1026 30.3 855 25.25 0.1 32.2 44 -10.7 12.7
08:45 1026 30.3 855 25.25 -0.3 31.4 47 -10.4 13.3
08:50 1026 30.3 856 25.28 -0.5 31.2 46 -10.7 12.8
08:55 1026 30.3 856 25.28 -0.3 31.5 45 -10.8 12.6
09:00 1026 30.3 856 25.28 -0 32 44 -10.9 12.3
09:05 1026 30.3 856 25.28 0.2 32.3 42 -11.2 11.8
09:10 1026 30.3 856 25.28 0.1 32.3 43 -11.1 12.1
09:15 1026 30.3 856 25.28 0.3 32.5 44 -10.7 12.8
09:20 1026 30.3 856 25.28 0.4 32.7 42 -11 12.1
09:25 1026 30.3 856 25.28 0.6 33 41 -11.3 11.7
09:30 1026 30.3 856 25.28 0.8 33.5 40 -11.4 11.5
09:35 1026 30.3 856 25.28 1.2 34.1 38 -11.6 11.2
09:40 1026 30.3 856 25.28 1.3 34.3 39 -11.3 11.7
09:45 1027 30.33 856 25.28 1.3 34.4 38 -11.4 11.5
09:50 1027 30.33 856 25.28 1.2 34.2 38 -11.6 11.1
09:55 1027 30.33 856 25.28 1.4 34.5 40 -10.9 12.3
10:00 1027 30.33 856 25.28 1.5 34.6 39 -11.2 11.9
10:05 1027 30.33 856 25.28 1.5 34.7 38 -11.3 11.7
10:10 1027 30.33 856 25.28 1.6 34.9 38 -11.1 12
10:15 1027 30.33 856 25.28 1.8 35.2 38 -11.1 12
10:20 1027 30.33 856 25.28 2.1 35.8 36 -11.6 11.1
10:25 1027 30.33 856 25.28 2.1 35.9 36 -11.4 11.6
10:30 1027 30.33 856 25.28 2.2 36 36 -11.3 11.7
10:35 1027 30.33 856 25.28 2.3 36.1 35 -11.7 10.9
10:40 1027 30.33 856 25.28 2.8 37.1 34 -11.7 11
10:45 1027 30.33 856 25.28 2.7 36.8 34 -11.7 10.9
10:50 1027 30.33 856 25.28 2.2 36 37 -11.1 12
10:55 1027 30.33 856 25.28 2.3 36.2 37 -10.8 12.5
11:00 1027 30.33 856 25.28 2.4 36.4 37 -11 12.2
11:05 1027 30.33 856 25.28 2.6 36.7 35 -11.5 11.4
11:10 1027 30.33 856 25.28 2.7 36.8 34 -11.6 11.1
11:15 1027 30.33 856 25.28 2.4 36.3 36 -11.4 11.5
11:20 1027 30.33 856 25.28 2.6 36.7 36 -11.2 11.9
11:25 1027 30.33 856 25.28 2.6 36.6 35 -11.4 11.4
11:30 1027 30.33 856 25.28 2.6 36.8 35 -11.2 11.9
11:35 1027 30.33 856 25.28 2.6 36.7 36 -11.1 12
11:40 1027 30.33 856 25.28 2.7 36.8 36 -11 12.3
11:45 1027 30.33 856 25.28 2.9 37.2 35 -11.1 12.1
11:50 1027 30.33 856 25.28 3.1 37.6 36 -10.5 13.1
11:55 1027 30.33 856 25.28 2.9 37.2 38 -10.2 13.6
12:00 1026 30.3 856 25.28 2.5 36.5 36 -11.3 11.7
12:05 1026 30.3 856 25.28 2.7 36.8 36 -11 12.3
12:10 1026 30.3 856 25.28 2.6 36.7 35 -11.3 11.6
12:15 1026 30.3 855 25.25 2.4 36.3 36 -11.2 11.9
12:20 1026 30.3 855 25.25 2.9 37.2 34 -11.4 11.5
12:25 1026 30.3 855 25.25 3.2 37.8 36 -10.6 12.9
12:30 1026 30.3 855 25.25 3.2 37.7 36 -10.4 13.3
12:35 1026 30.3 855 25.25 3.4 38.1 34 -11 12.2
12:40 1026 30.3 855 25.25 3.4 38.1 34 -11.1 12
12:45 1026 30.3 855 25.25 3.2 37.7 35 -10.8 12.5
12:50 1026 30.3 855 25.25 3.5 38.3 36 -10.2 13.6
12:55 1026 30.3 855 25.25 3.3 38 35 -10.9 12.4
13:00 1026 30.3 855 25.25 3.3 37.9 35 -10.6 12.9
13:05 1026 30.3 855 25.25 3.7 38.6 33 -11.1 12
13:10 1026 30.3 855 25.25 4 39.2 33 -10.8 12.6
13:15 1026 30.3 855 25.25 3.8 38.9 34 -10.6 12.9
13:20 1026 30.3 855 25.25 3.5 38.3 36 -10.3 13.5
13:25 1026 30.3 855 25.25 3.5 38.2 36 -10.4 13.3
13:30 1025 30.27 855 25.25 3.1 37.6 35 -10.9 12.3
13:35 1025 30.27 855 25.25 2.8 37.1 37 -10.5 13
13:40 1025 30.27 855 25.25 3.3 37.9 34 -11 12.2
13:45 1025 30.27 854 25.22 3.1 37.5 36 -10.5 13.1
13:50 1025 30.27 854 25.22 3.1 37.7 34 -11.2 11.9
13:55 1025 30.27 854 25.22 2.9 37.1 35 -11.1 12
14:00 1025 30.27 854 25.22 3.1 37.5 33 -11.6 11.2
14:05 1025 30.27 854 25.22 3.1 37.6 35 -10.9 12.4
14:10 1025 30.27 854 25.22 3.2 37.7 34 -11.2 11.8
14:15 1025 30.27 854 25.22 3.2 37.7 35 -10.9 12.4
14:20 1025 30.27 854 25.22 3.4 38.1 34 -11.2 11.9
14:25 1025 30.27 854 25.22 3.5 38.3 34 -10.9 12.4
14:30 1025 30.27 854 25.22 3.4 38.1 35 -10.6 12.8
14:35 1025 30.27 854 25.22 3.3 37.9 34 -11.2 11.9
14:40 1024 30.24 854 25.22 3.3 38 35 -10.8 12.6
14:45 1024 30.24 854 25.22 3.5 38.3 34 -10.8 12.5
14:50 1024 30.24 853 25.19 3.7 38.6 33 -11.2 11.9
14:55 1024 30.24 853 25.19 3.8 38.8 35 -10.4 13.3
15:00 1024 30.24 853 25.19 4 39.3 32 -11.2 11.9
15:05 1024 30.24 853 25.19 3.9 39 34 -10.8 12.6
15:10 1024 30.24 853 25.19 4.1 39.4 32 -11.2 11.9
15:15 1024 30.24 853 25.19 4.2 39.5 33 -10.7 12.8
15:20 1024 30.24 853 25.19 4.3 39.8 32 -11 12.3
15:25 1024 30.24 853 25.19 4.6 40.3 32 -10.7 12.8
15:30 1024 30.24 853 25.19 4.8 40.6 32 -10.6 12.9
15:35 1024 30.24 853 25.19 5.1 41.2 30 -11 12.2
15:40 1024 30.24 853 25.19 5.5 41.8 29 -11 12.1
15:45 1024 30.24 853 25.19 5.4 41.8 30 -10.8 12.5
15:50 1024 30.24 853 25.19 5.5 41.9 29 -11.1 11.9
15:55 1023 30.21 853 25.19 5.7 42.3 30 -10.7 12.7
16:00 1023 30.21 853 25.19 6 42.8 25 -12.4 9.7
16:05 1023 30.21 853 25.19 6.2 43.2 25 -12.4 9.6
16:10 1023 30.21 852 25.16 6.4 43.5 24 -12.8 8.9
16:15 1023 30.21 852 25.16 6.5 43.6 25 -12 10.4
16:20 1023 30.21 852 25.16 6.5 43.7 24 -12.9 8.8
16:25 1023 30.21 852 25.16 6.6 43.9 23 -13.2 8.2
16:30 1023 30.21 852 25.16 6.7 44 24 -12.4 9.7
16:35 1023 30.21 852 25.16 6.8 44.2 23 -13.2 8.3
16:40 1023 30.21 852 25.16 6.9 44.4 23 -12.9 8.9
16:45 1023 30.21 852 25.16 6.8 44.2 22 -13.6 7.5
16:50 1023 30.21 852 25.16 6.8 44.3 22 -13.4 7.9
16:55 1023 30.21 852 25.16 6.9 44.5 23 -12.9 8.8
17:00 1023 30.21 852 25.16 6.8 44.3 23 -13 8.5
17:05 1023 30.21 852 25.16 6.8 44.2 23 -13 8.5
17:10 1023 30.21 852 25.16 6.8 44.2 23 -13.3 8.1
17:15 1023 30.21 852 25.16 6.9 44.5 23 -12.7 9.1
17:20 1023 30.21 852 25.16 7.3 45.2 22 -13.2 8.2
17:25 1023 30.21 852 25.16 7.4 45.3 23 -12.4 9.8
17:30 1023 30.21 852 25.16 7.6 45.6 20 -14.4 6.2
17:35 1022 30.18 852 25.16 7.6 45.8 23 -12.5 9.6
17:40 1022 30.18 852 25.16 7.6 45.7 22 -12.8 8.9
17:45 1022 30.18 851 25.13 7.5 45.4 22 -12.8 8.9
17:50 1022 30.18 851 25.13 7.6 45.6 22 -12.9 8.8
17:55 1022 30.18 851 25.13 7.4 45.3 21 -13.4 7.8
18:00 1022 30.18 851 25.13 7.5 45.4 23 -12.6 9.3
18:05 1022 30.18 851 25.13 7.4 45.3 21 -13.7 7.3
18:10 1022 30.18 851 25.13 7.2 44.9 22 -13.3 8.1
18:15 1022 30.18 851 25.13 7.2 45 22 -13 8.6
18:20 1022 30.18 851 25.13 7.1 44.7 21 -13.7 7.3
18:25 1022 30.18 851 25.13 7.1 44.9 22 -13.2 8.2
18:30 1022 30.18 851 25.13 7.1 44.8 23 -12.8 9
18:35 1022 30.18 851 25.13 7 44.5 24 -12.5 9.5
18:40 1022 30.18 851 25.13 6.8 44.3 21 -13.9 7
18:45 1021 30.15 851 25.13 6.7 44.1 22 -13.4 7.9
18:50 1021 30.15 851 25.13 6.5 43.7 23 -13.5 7.7
18:55 1021 30.15 850 25.1 6.3 43.3 21 -14.4 6.1
19:00 1021 30.15 850 25.1 6.2 43.2 24 -13 8.5
19:05 1021 30.15 850 25.1 6 42.8 24 -13.1 8.4
19:10 1021 30.15 850 25.1 5.8 42.4 25 -12.9 8.8
19:15 1021 30.15 850 25.1 5.5 41.8 26 -12.5 9.5
19:20 1021 30.15 850 25.1 5.2 41.4 25 -13.1 8.4
19:25 1021 30.15 850 25.1 5 41.1 25 -13.6 7.5
19:30 1021 30.15 850 25.1 5.2 41.3 24 -13.8 7.2
19:35 1021 30.15 850 25.1 5.1 41.2 25 -13.6 7.5
19:40 1021 30.15 850 25.1 5 40.9 24 -13.8 7.2
19:45 1021 30.15 850 25.1 5 40.9 24 -13.8 7.2
19:50 1021 30.15 850 25.1 4.8 40.7 26 -13.3 8.1
19:55 1021 30.15 850 25.1 4.7 40.5 27 -12.6 9.3
20:00 1021 30.15 850 25.1 4.4 39.9 28 -12.5 9.6
20:05 1021 30.15 850 25.1 4.3 39.7 29 -12.3 9.9
20:10 1021 30.15 850 25.1 4.2 39.6 28 -12.6 9.4
20:15 1021 30.15 850 25.1 4.3 39.7 29 -12.5 9.5
20:20 1021 30.15 850 25.1 4.4 39.9 27 -12.9 8.8
20:25 1021 30.15 850 25.1 4.5 40 29 -12.3 9.8
20:30 1021 30.15 850 25.1 4.4 39.9 28 -12.8 8.9
20:35 1021 30.15 850 25.1 4.5 40 28 -12.4 9.7
20:40 1021 30.15 850 25.1 4.3 39.8 30 -11.7 11
20:45 1021 30.15 850 25.1 4.2 39.6 29 -12.3 9.8
20:50 1021 30.15 850 25.1 4.2 39.6 31 -11.6 11.1
20:55 1021 30.15 850 25.1 4.1 39.4 30 -12.2 10.1
21:00 1021 30.15 850 25.1 4.2 39.5 30 -12 10.4
21:05 1021 30.15 850 25.1 4.1 39.3 30 -12.1 10.3
21:10 1021 30.15 850 25.1 4 39.2 31 -11.8 10.8
21:15 1021 30.15 850 25.1 3.9 39 31 -11.8 10.7
21:20 1021 30.15 850 25.1 3.9 39 31 -11.9 10.5
21:25 1021 30.15 850 25.1 3.9 39 32 -11.5 11.3
21:30 1021 30.15 850 25.1 3.8 38.8 31 -11.9 10.5
21:35 1021 30.15 850 25.1 3.8 38.9 30 -12 10.3
21:40 1021 30.15 850 25.1 4 39.1 31 -11.7 11
21:45 1021 30.15 850 25.1 4 39.1 32 -11.2 11.8
21:50 1020 30.12 850 25.1 3.9 39 31 -11.7 11
21:55 1020 30.12 850 25.1 4.2 39.5 28 -12.8 9
22:00 1020 30.12 850 25.1 4.3 39.8 29 -12.3 9.8
22:05 1020 30.12 850 25.1 4.3 39.7 29 -12.2 10.1
22:10 1020 30.12 850 25.1 4.1 39.5 29 -12.5 9.5
22:15 1020 30.12 850 25.1 4.2 39.6 29 -12.5 9.6
22:20 1020 30.12 850 25.1 4.3 39.7 29 -12.3 9.8
22:25 1020 30.12 850 25.1 4.2 39.6 29 -12.3 9.8
22:30 1020 30.12 850 25.1 4.3 39.7 28 -12.6 9.3
22:35 1020 30.12 850 25.1 4.3 39.7 29 -12.2 10.1
22:40 1020 30.12 850 25.1 4.1 39.4 29 -12.2 10
22:45 1020 30.12 850 25.1 4 39.3 31 -11.8 10.8
22:50 1020 30.12 850 25.1 4 39.2 31 -11.8 10.7
22:55 1020 30.12 850 25.1 4 39.1 29 -12.4 9.7
23:00 1020 30.12 850 25.1 4 39.1 30 -12.2 10.1
23:05 1020 30.12 850 25.1 3.9 39 30 -12 10.4
23:10 1020 30.12 850 25.1 3.8 38.9 32 -11.6 11.2
23:15 1020 30.12 850 25.1 3.8 38.9 32 -11.5 11.3
23:20 1020 30.12 850 25.1 3.8 38.8 29 -12.6 9.4
23:25 1020 30.12 849 25.07 4 39.1 30 -12 10.4
23:30 1020 30.12 849 25.07 3.9 39.1 30 -12.3 9.9
23:35 1020 30.12 849 25.07 4 39.1 30 -12.1 10.2
23:40 1020 30.12 849 25.07 3.9 38.9 31 -11.9 10.5
23:45 1020 30.12 849 25.07 3.9 39 30 -12.1 10.3
23:50 1020 30.12 849 25.07 3.8 38.9 31 -11.9 10.6
23:55 1020 30.12 849 25.07 3.7 38.7 31 -11.9 10.6
24:00 1020 30.12 849 25.07 3.7 38.7 30 -12.3 9.8